Time,TemperatureF,DewpointF,PressureIn,WindDirection,WindDirectionDegrees,WindSpeedMPH,WindSpeedGustMPH,Humidity,HourlyPrecipIn,Conditions,Clouds,dailyrainin,SoftwareType,DateUTC
2013-06-13 04:02:00,52.0,50.0,-100.00,SSW,210,1.0,-999.0,92,-99.99,,,-99.99,,2013-06-13 08:02:00,
2013-06-13 04:11:00,52.0,50.0,-100.00,SE,130,1.0,-999.0,92,-99.99,,,-99.99,,2013-06-13 08:11:00,
2013-06-13 04:43:00,50.0,49.0,-100.00,South,185,0.0,-999.0,96,-99.99,,,-99.99,,2013-06-13 08:43:00,
2013-06-13 04:52:00,50.0,49.0,-100.00,South,185,0.0,-999.0,96,-99.99,,,-99.99,,2013-06-13 08:52:00,
2013-06-13 07:12:00,50.0,49.0,-100.00,South,170,0.0,2.0,95,-99.99,,,-99.99,,2013-06-13 11:12:00,
2013-06-13 10:02:00,64.0,59.0,-100.00,SSE,160,1.0,3.0,83,-99.99,,,-99.99,,2013-06-13 14:02:00,
2013-06-13 11:02:00,67.0,60.0,-100.00,South,180,2.0,2.0,79,-99.99,,,-99.99,,2013-06-13 15:02:00,
2013-06-13 11:33:00,67.0,60.0,-100.00,SE,132,5.0,5.0,79,-99.99,,,-99.99,,2013-06-13 15:33:00,
2013-06-13 12:02:00,67.0,60.0,-100.00,SSW,205,1.0,7.0,79,-99.99,,,-99.99,,2013-06-13 16:02:00,
2013-06-13 12:33:00,67.0,60.0,-100.00,South,176,6.0,6.0,79,-99.99,,,-99.99,,2013-06-13 16:33:00,
2013-06-13 13:02:00,67.0,60.0,-100.00,South,185,6.0,6.0,79,-99.99,,,-99.99,,2013-06-13 17:02:00,
2013-06-13 13:33:00,67.0,60.0,-100.00,South,184,9.0,9.0,79,-99.99,,,-99.99,,2013-06-13 17:33:00,
2013-06-13 15:33:00,66.0,59.0,-100.00,SE,124,5.0,5.0,79,-99.99,,,-99.99,,2013-06-13 19:33:00,
2013-06-13 17:34:00,63.0,56.0,-100.00,East,90,6.0,6.0,79,-99.99,,,-99.99,,2013-06-13 21:34:00,
2013-06-13 19:32:00,61.0,54.0,-100.00,East,94,8.0,8.0,79,-99.99,,,-99.99,,2013-06-13 23:32:00,
2013-06-13 21:01:00,60.0,59.0,-100.00,South,175,1.0,2.0,96,-99.99,,,-99.99,,2013-06-14 01:01:00,
2013-06-13 21:33:00,58.0,57.0,-100.00,ENE,72,7.0,7.0,96,-99.99,,,-99.99,,2013-06-14 01:33:00,
2013-06-13 22:02:00,58.0,57.0,-100.00,ESE,105,1.0,5.0,96,-99.99,,,-99.99,,2013-06-14 02:02:00,
2013-06-13 22:33:00,57.0,56.0,-100.00,NE,46,7.0,7.0,96,-99.99,,,-99.99,,2013-06-14 02:33:00,
2013-06-13 23:02:00,57.0,56.0,-100.00,East,100,7.0,7.0,96,-99.99,,,-99.99,,2013-06-14 03:02:00,
2013-06-13 23:34:00,55.0,54.0,-100.00,NE,50,9.0,9.0,96,-99.99,,,-99.99,,2013-06-14 03:34:00,
2013-06-13 23:43:00,55.0,54.0,-100.00,NE,50,9.0,13.0,96,-99.99,,,-99.99,,2013-06-14 03:43:00,
2013-06-13 23:53:00,55.0,54.0,-100.00,NE,50,9.0,9.0,96,-99.99,,,-99.99,,2013-06-14 03:53:00,